Time;durP1;ratioP1;P1;durP2;ratioP2;P2;SDS_P1;SDS_P2;PMS_P1;PMS_P2;Temp;Humidity;BMP_temperature;BMP_pressure;BME280_temperature;BME280_humidity;BME280_pressure;Samples;Min_cycle;Max_cycle;Signal;HPM_P1;HPM_P2
2021/12/01 00:01:57;;;;;;;7.47;6.00;;;;;;;-143.84;81.00;45209.03;5111077;28;20442;-77
2021/12/01 00:04:24;;;;;;;6.80;6.10;;;;;;;-143.84;80.85;45209.03;5111299;28;20454;-77
2021/12/01 00:06:53;;;;;;;8.60;6.97;;;;;;;-143.84;81.07;45197.59;5111652;28;20808;-77
2021/12/01 00:09:21;;;;;;;6.63;6.00;;;;;;;-143.84;80.53;45207.13;5111833;28;20460;-77
2021/12/01 00:11:48;;;;;;;9.50;6.53;;;;;;;-143.84;80.39;45247.09;5111201;28;20479;-77
2021/12/01 00:14:15;;;;;;;7.10;6.40;;;;;;;-143.84;80.73;45222.34;5111354;28;21073;-77
2021/12/01 00:16:43;;;;;;;9.07;7.20;;;;;;;-143.84;80.18;45170.94;5111385;28;20445;-77
2021/12/01 00:19:10;;;;;;;5.77;5.23;;;;;;;-143.84;80.02;45237.59;5110956;28;20442;-77
2021/12/01 00:21:37;;;;;;;7.43;6.20;;;;;;;-143.84;79.41;45216.63;5111119;28;20924;-76
2021/12/01 00:24:06;;;;;;;6.20;5.70;;;;;;;-143.84;79.15;45216.63;5111149;28;20439;-76
2021/12/01 00:26:34;;;;;;;6.07;5.47;;;;;;;-143.84;79.22;45231.88;5111110;28;20957;-76
2021/12/01 00:29:01;;;;;;;9.67;6.20;;;;;;;-143.84;78.69;45239.50;5110752;28;20539;-77
2021/12/01 00:31:28;;;;;;;5.67;5.17;;;;;;;-143.84;78.68;45224.25;5110952;28;20428;-77
2021/12/01 00:33:57;;;;;;;7.70;6.33;;;;;;;-143.84;78.26;45220.44;5110642;28;20479;-76
2021/12/01 00:36:24;;;;;;;8.47;5.90;;;;;;;-143.84;78.42;45220.44;5110511;28;21044;-77
2021/12/01 00:38:52;;;;;;;8.03;5.63;;;;;;;-143.84;78.82;45228.06;5110592;28;20439;-77
2021/12/01 00:41:22;;;;;;;7.90;5.97;;;;;;;-143.84;78.44;45212.84;5110664;28;20438;-76
2021/12/01 00:43:50;;;;;;;8.20;6.53;;;;;;;-143.84;78.56;45254.72;5110787;28;20917;-77
2021/12/01 00:46:22;;;;;;;8.33;5.70;;;;;;;-143.84;78.68;45226.16;5110292;28;20470;-76
2021/12/01 00:48:50;;;;;;;7.83;6.10;;;;;;;-143.84;78.08;45235.69;5125090;27;21184;-77
2021/12/01 00:51:17;;;;;;;7.10;6.37;;;;;;;-143.84;78.13;45209.03;5130328;27;20442;-77
2021/12/01 00:53:45;;;;;;;8.37;5.50;;;;;;;-143.84;78.45;45203.31;5130312;27;20468;-77
2021/12/01 00:56:12;;;;;;;6.10;5.47;;;;;;;-143.84;78.42;45207.13;5130026;27;20547;-76
2021/12/01 00:58:41;;;;;;;6.13;5.53;;;;;;;-143.84;78.20;45205.22;5127634;27;20804;-77
2021/12/01 01:01:08;;;;;;;8.53;5.80;;;;;;;-143.84;78.46;45186.16;5130367;27;20445;-77
2021/12/01 01:03:36;;;;;;;7.07;6.00;;;;;;;-143.84;77.88;45224.25;5127657;27;20437;-77
2021/12/01 01:06:03;;;;;;;10.40;7.00;;;;;;;-143.84;78.12;45201.41;5130635;27;20442;-77
2021/12/01 01:08:31;;;;;;;8.80;6.07;;;;;;;-143.84;78.21;45237.59;5130932;27;20827;-77
2021/12/01 01:16:22;;;;;;;6.43;5.83;;;;;;;-143.84;78.24;45226.16;5130287;27;20484;-76
2021/12/01 01:16:49;;;;;;;15.10;8.33;;;;;;;-143.84;78.48;45220.44;5130520;27;20424;-76
2021/12/01 01:19:17;;;;;;;10.40;7.57;;;;;;;-143.84;79.21;45209.03;5130742;27;20441;-77
2021/12/01 01:21:49;;;;;;;8.17;7.00;;;;;;;-143.84;78.91;45224.25;5130647;27;20430;-77
2021/12/01 01:24:17;;;;;;;6.90;6.20;;;;;;;-143.84;79.07;45216.63;5130391;27;20454;-77
2021/12/01 01:26:45;;;;;;;10.97;6.67;;;;;;;-143.84;79.26;45189.97;5130591;27;20449;-77
2021/12/01 01:29:14;;;;;;;8.37;6.93;;;;;;;-143.84;79.23;45220.44;5130561;27;20457;-77
2021/12/01 01:31:41;;;;;;;18.53;9.40;;;;;;;-143.84;78.78;45216.63;5130576;27;20457;-77
2021/12/01 01:34:09;;;;;;;14.83;10.47;;;;;;;-143.84;78.99;45207.13;5130596;27;21003;-77
2021/12/01 01:36:36;;;;;;;16.53;11.13;;;;;;;-143.84;78.74;45220.44;5130547;28;20434;-77
2021/12/01 01:39:05;;;;;;;14.00;11.90;;;;;;;-143.84;78.48;45220.44;5130673;28;20452;-77
2021/12/01 01:41:33;;;;;;;11.00;8.30;;;;;;;-143.84;77.85;45224.25;5130405;28;20434;-76
2021/12/01 01:44:00;;;;;;;10.27;8.60;;;;;;;-143.84;77.08;45241.41;5130366;28;20422;-77
2021/12/01 01:46:34;;;;;;;12.13;9.73;;;;;;;-143.84;77.19;45205.22;5130094;28;20824;-77
2021/12/01 01:49:09;;;;;;;13.23;9.17;;;;;;;-143.84;77.23;45220.44;5130303;28;20810;-77
2021/12/01 01:51:36;;;;;;;12.83;9.40;;;;;;;-143.84;76.81;45207.13;5130173;28;20465;-77
2021/12/01 01:54:04;;;;;;;9.97;8.07;;;;;;;-143.84;75.93;45218.53;5129991;28;20489;-77
2021/12/01 01:56:31;;;;;;;9.80;8.10;;;;;;;-143.84;75.60;45252.81;5130445;28;20430;-77
2021/12/01 01:58:59;;;;;;;7.90;7.10;;;;;;;-143.84;75.14;45210.94;5130403;28;20811;-77
2021/12/01 02:01:46;;;;;;;9.57;7.90;;;;;;;-143.84;75.06;45212.84;5130104;28;20442;-77
2021/12/01 02:04:16;;;;;;;10.90;8.20;;;;;;;-143.84;74.47;45235.69;5130131;28;20446;-77
2021/12/01 02:06:46;;;;;;;11.03;7.83;;;;;;;-143.84;74.80;45195.69;5130331;28;20438;-77
2021/12/01 02:09:15;;;;;;;10.63;8.10;;;;;;;-143.84;74.81;45233.78;5130324;28;20446;-77
2021/12/01 02:11:43;;;;;;;10.50;8.20;;;;;;;-143.84;74.71;45188.06;5129267;28;20485;-77
2021/12/01 02:14:11;;;;;;;12.47;7.70;;;;;;;-143.84;74.95;45228.06;5127634;28;21007;-77
2021/12/01 02:16:38;;;;;;;10.00;8.17;;;;;;;-143.84;74.37;45228.06;5118290;28;20446;-76
2021/12/01 02:19:06;;;;;;;9.10;7.70;;;;;;;-143.84;74.17;45231.88;5129817;28;21000;-76
2021/12/01 02:21:35;;;;;;;6.93;6.23;;;;;;;-143.84;74.10;45235.69;5132841;28;20433;-81
2021/12/01 02:24:06;;;;;;;7.20;6.50;;;;;;;-143.84;74.31;45228.06;5134710;27;20442;-81
2021/12/01 02:26:38;;;;;;;13.80;7.50;;;;;;;-143.84;74.28;45214.72;5137306;27;20438;-81
2021/12/01 02:29:07;;;;;;;6.00;5.40;;;;;;;-143.84;73.29;45226.16;5137190;27;20430;-81
2021/12/01 02:31:37;;;;;;;6.70;6.00;;;;;;;-143.84;73.96;45250.91;5137948;27;20442;-81
2021/12/01 02:34:06;;;;;;;9.00;5.80;;;;;;;-143.84;73.17;45231.88;5137610;27;20499;-81
2021/12/01 02:36:36;;;;;;;7.50;6.27;;;;;;;-143.84;73.27;45247.09;5137715;27;20441;-81
2021/12/01 02:39:06;;;;;;;6.50;5.93;;;;;;;-143.84;72.92;45235.69;5137280;27;20504;-81
2021/12/01 02:41:35;;;;;;;10.97;7.17;;;;;;;-143.84;72.85;45241.41;5137618;27;20631;-81
2021/12/01 02:44:05;;;;;;;9.33;6.40;;;;;;;-143.84;73.03;45218.53;5136950;27;20484;-81
2021/12/01 02:46:33;;;;;;;9.77;6.53;;;;;;;-143.84;73.79;45237.59;5137952;27;20443;-81
2021/12/01 02:49:01;;;;;;;7.50;6.43;;;;;;;-143.84;73.45;45228.06;5137619;27;20955;-81
2021/12/01 02:51:31;;;;;;;9.40;6.23;;;;;;;-143.84;73.30;45229.97;5136962;27;20811;-81
2021/12/01 02:54:00;;;;;;;6.87;6.17;;;;;;;-143.84;72.85;45231.88;5137334;27;20493;-81
2021/12/01 02:56:29;;;;;;;11.80;6.40;;;;;;;-143.84;72.67;45205.22;5137194;27;20434;-81
2021/12/01 02:58:59;;;;;;;7.37;6.20;;;;;;;-143.84;72.97;45209.03;5136715;27;20433;-81
2021/12/01 03:01:27;;;;;;;7.90;6.43;;;;;;;-143.84;72.87;45224.25;5136305;27;20446;-81
2021/12/01 03:03:54;;;;;;;9.67;7.50;;;;;;;-143.84;72.46;45266.16;5136790;27;20427;-81
2021/12/01 03:06:25;;;;;;;8.73;7.60;;;;;;;-143.84;71.85;45239.50;5136645;27;20441;-81
2021/12/01 03:08:53;;;;;;;14.73;7.80;;;;;;;-143.84;72.22;45210.94;5136459;27;20442;-81
2021/12/01 03:11:22;;;;;;;13.63;7.40;;;;;;;-143.84;73.14;45226.16;5136766;27;20473;-81
2021/12/01 03:13:49;;;;;;;8.73;7.07;;;;;;;-143.84;72.59;45228.06;5136608;27;20476;-80
2021/12/01 03:16:17;;;;;;;9.47;7.87;;;;;;;-143.84;73.00;45228.06;5136961;27;20447;-81
2021/12/01 03:18:44;;;;;;;8.30;6.80;;;;;;;-143.84;73.19;45235.69;5136278;27;20426;-81
2021/12/01 03:21:13;;;;;;;8.47;5.50;;;;;;;-143.84;73.20;45220.44;5136564;27;20440;-81
2021/12/01 03:23:41;;;;;;;6.80;6.10;;;;;;;-143.84;72.72;45209.03;5134623;27;20437;-81
2021/12/01 03:26:13;;;;;;;10.10;6.87;;;;;;;-143.84;72.83;45203.31;5134649;27;20427;-81
2021/12/01 03:28:47;;;;;;;11.47;6.60;;;;;;;-143.84;72.48;45220.44;5136432;27;20437;-81
2021/12/01 03:31:16;;;;;;;12.43;7.07;;;;;;;-143.84;72.81;45216.63;5136148;27;20454;-81
2021/12/01 03:33:43;;;;;;;10.30;8.10;;;;;;;-143.84;73.12;45231.88;5136853;27;20422;-82
2021/12/01 03:36:11;;;;;;;9.70;6.73;;;;;;;-143.84;73.62;45231.88;5136051;27;20878;-81
2021/12/01 03:38:38;;;;;;;13.70;7.33;;;;;;;-143.84;73.33;45229.97;5136233;27;20425;-81
2021/12/01 03:41:05;;;;;;;11.40;7.87;;;;;;;-143.84;73.06;45222.34;5136637;27;20443;-81
2021/12/01 03:43:32;;;;;;;23.73;7.70;;;;;;;-143.84;73.79;45209.03;5136277;27;20777;-81
2021/12/01 03:46:01;;;;;;;9.77;8.47;;;;;;;-143.84;73.47;45220.44;5136425;27;21107;-81
2021/12/01 03:48:29;;;;;;;10.50;8.07;;;;;;;-143.84;73.59;45229.97;5136808;27;21287;-81
2021/12/01 03:50:57;;;;;;;11.80;7.90;;;;;;;-143.84;73.30;45243.31;5135333;27;20505;-81
2021/12/01 03:53:25;;;;;;;12.40;9.40;;;;;;;-143.84;73.20;45209.03;5135340;27;21053;-80
2021/12/01 03:55:54;;;;;;;16.83;9.47;;;;;;;-143.84;73.72;45212.84;5134750;27;21034;-81
2021/12/01 03:58:21;;;;;;;14.40;9.80;;;;;;;-143.84;73.48;45247.09;5135308;27;20435;-81
2021/12/01 04:00:48;;;;;;;12.77;9.10;;;;;;;-143.84;73.87;45222.34;5134787;27;20426;-81
2021/12/01 04:03:17;;;;;;;12.53;8.67;;;;;;;-143.84;73.56;45209.03;5135188;27;20434;-81
2021/12/01 04:05:45;;;;;;;9.53;7.10;;;;;;;-143.84;73.46;45229.97;5135104;27;20434;-81
2021/12/01 04:08:13;;;;;;;9.50;6.50;;;;;;;-143.84;73.34;45209.03;5134863;27;20434;-80
2021/12/01 04:10:40;;;;;;;13.60;6.20;;;;;;;-143.84;73.50;45216.63;5135108;27;20474;-81
2021/12/01 04:13:08;;;;;;;10.53;6.00;;;;;;;-143.84;73.48;45197.59;5134663;27;20803;-81
2021/12/01 04:15:35;;;;;;;6.90;5.73;;;;;;;-143.84;72.94;45203.31;5134467;27;20476;-81
2021/12/01 04:18:03;;;;;;;7.10;4.43;;;;;;;-143.84;72.41;45239.50;5134121;27;20427;-80
2021/12/01 04:20:31;;;;;;;6.40;5.40;;;;;;;-143.84;72.46;45226.16;5134231;27;20970;-81
2021/12/01 04:22:59;;;;;;;7.23;4.80;;;;;;;-143.84;72.45;45228.06;5134164;27;20434;-81
2021/12/01 04:25:26;;;;;;;4.77;4.40;;;;;;;-143.84;72.07;45210.94;5134282;27;20437;-81
2021/12/01 04:27:54;;;;;;;4.47;4.07;;;;;;;-143.84;71.15;45231.88;5133944;27;20442;-81
2021/12/01 04:30:22;;;;;;;4.30;3.83;;;;;;;-143.84;70.26;45220.44;5134049;27;20426;-81
2021/12/01 04:32:51;;;;;;;4.00;3.60;;;;;;;-143.84;69.34;45237.59;5133359;27;20423;-81
2021/12/01 04:35:20;;;;;;;4.10;3.70;;;;;;;-143.84;68.63;45241.41;5133115;27;20470;-80
2021/12/01 04:37:50;;;;;;;4.63;4.10;;;;;;;-143.84;69.32;45231.88;5133060;27;20484;-80
2021/12/01 04:40:19;;;;;;;4.30;3.33;;;;;;;-143.84;67.59;45222.34;5132048;27;20943;-80
2021/12/01 04:42:46;;;;;;;3.80;3.10;;;;;;;-143.84;67.04;45193.78;5131032;27;20430;-80
2021/12/01 04:45:17;;;;;;;3.87;3.57;;;;;;;-143.84;66.75;45218.53;5131139;27;20824;-80
2021/12/01 04:47:46;;;;;;;4.63;4.23;;;;;;;-143.84;67.00;45218.53;5133895;27;20426;-81
2021/12/01 04:50:15;;;;;;;4.73;3.87;;;;;;;-143.84;65.96;45239.50;5133423;27;20442;-81
2021/12/01 04:52:43;;;;;;;4.63;3.87;;;;;;;-143.84;65.74;45220.44;5133772;27;20438;-80
2021/12/01 04:55:13;;;;;;;5.40;4.33;;;;;;;-143.84;64.84;45218.53;5134073;27;20466;-81
2021/12/01 04:57:41;;;;;;;9.77;5.17;;;;;;;-143.84;65.00;45220.44;5135533;27;20431;-81
2021/12/01 05:00:10;;;;;;;4.83;3.87;;;;;;;-143.84;65.16;45210.94;5134906;27;20423;-81
2021/12/01 05:02:38;;;;;;;5.77;3.93;;;;;;;-143.84;65.79;45241.41;5134746;27;20435;-82
2021/12/01 05:05:06;;;;;;;5.30;4.03;;;;;;;-143.84;64.82;45207.13;5134378;27;20949;-82
2021/12/01 05:07:34;;;;;;;9.40;4.07;;;;;;;-143.84;64.79;45203.31;5116273;27;20430;-81
2021/12/01 05:10:01;;;;;;;4.93;4.27;;;;;;;-143.84;64.67;45235.69;5134292;27;20476;-81
2021/12/01 05:12:31;;;;;;;7.17;4.37;;;;;;;-143.84;63.83;45188.06;5133333;27;20862;-81
2021/12/01 05:14:58;;;;;;;4.90;4.40;;;;;;;-143.84;63.85;45243.31;5133551;27;20471;-81
2021/12/01 05:17:25;;;;;;;3.73;3.30;;;;;;;-143.84;63.05;45226.16;5132088;27;20458;-77
2021/12/01 05:19:53;;;;;;;4.77;4.30;;;;;;;-143.84;62.94;45228.06;5131196;27;20426;-77
2021/12/01 05:22:20;;;;;;;4.27;3.23;;;;;;;-143.84;63.32;45229.97;5131258;27;20434;-78
2021/12/01 05:24:47;;;;;;;8.47;3.70;;;;;;;-143.84;63.15;45218.53;5133858;27;20427;-81
2021/12/01 05:27:15;;;;;;;5.80;4.10;;;;;;;-143.84;62.40;45214.72;5133461;27;20774;-80
2021/12/01 05:29:43;;;;;;;4.13;3.73;;;;;;;-143.84;61.90;45218.53;5132946;27;20935;-80
2021/12/01 05:32:11;;;;;;;4.33;3.93;;;;;;;-143.84;61.83;45209.03;5133204;27;20434;-81
2021/12/01 05:34:38;;;;;;;4.93;4.30;;;;;;;-143.84;62.33;45231.88;5133313;27;20480;-81
2021/12/01 05:37:05;;;;;;;4.60;4.07;;;;;;;-143.84;61.91;45224.25;5133143;27;20789;-81
2021/12/01 05:39:33;;;;;;;4.30;3.87;;;;;;;-143.84;62.68;45239.50;5132726;27;20817;-81
2021/12/01 05:42:01;;;;;;;4.83;4.50;;;;;;;-143.84;62.10;45197.59;5133117;28;20421;-79
2021/12/01 05:44:30;;;;;;;4.60;4.20;;;;;;;-143.84;61.63;45247.09;5132571;28;20431;-81
2021/12/01 05:46:59;;;;;;;6.30;4.40;;;;;;;-143.84;61.69;45218.53;5133233;28;20795;-82
2021/12/01 05:49:26;;;;;;;5.80;4.80;;;;;;;-143.84;62.00;45210.94;5132941;28;20444;-81
2021/12/01 05:51:54;;;;;;;6.57;5.93;;;;;;;-143.84;62.29;45258.53;5132276;28;20431;-82
2021/12/01 05:54:21;;;;;;;7.73;5.03;;;;;;;-143.84;61.80;45189.97;5131880;28;20438;-81
2021/12/01 05:56:48;;;;;;;8.70;5.97;;;;;;;-143.84;61.54;45220.44;5132407;28;20440;-81
2021/12/01 05:59:16;;;;;;;7.27;5.20;;;;;;;-143.84;61.46;45195.69;5135452;27;21032;-81
2021/12/01 06:01:43;;;;;;;8.60;5.07;;;;;;;-143.84;61.43;45220.44;5136976;27;20422;-81
2021/12/01 06:04:12;;;;;;;6.37;5.67;;;;;;;-143.84;61.41;45241.41;5136718;27;20442;-81
2021/12/01 06:06:39;;;;;;;6.77;4.27;;;;;;;-143.84;61.90;45212.84;5137141;27;20444;-81
2021/12/01 06:09:07;;;;;;;4.70;4.30;;;;;;;-143.84;60.70;45218.53;5137108;27;20449;-81
2021/12/01 06:11:34;;;;;;;6.43;5.07;;;;;;;-143.84;61.09;45195.69;5136352;27;21018;-81
2021/12/01 06:14:02;;;;;;;5.00;4.37;;;;;;;-143.84;60.87;45224.25;5135559;27;20452;-83
2021/12/01 06:16:29;;;;;;;4.93;4.40;;;;;;;-143.84;61.21;45235.69;5134972;27;20478;-79
2021/12/01 06:18:56;;;;;;;6.17;4.43;;;;;;;-143.84;60.90;45201.41;5135648;27;20448;-82
2021/12/01 06:21:25;;;;;;;4.43;4.13;;;;;;;-143.84;60.61;45209.03;5137368;27;20442;-82
2021/12/01 06:23:52;;;;;;;4.50;4.07;;;;;;;-143.84;60.90;45186.16;5135310;27;20453;-80
2021/12/01 06:26:20;;;;;;;5.10;3.50;;;;;;;-143.84;59.96;45226.16;5135210;27;20449;-79
2021/12/01 06:28:51;;;;;;;5.77;3.90;;;;;;;-143.84;60.13;45193.78;5135274;27;20841;-85
2021/12/01 06:31:19;;;;;;;6.60;4.20;;;;;;;-143.84;60.26;45197.59;5135013;27;20436;-80
2021/12/01 06:33:46;;;;;;;5.60;4.07;;;;;;;-143.84;60.59;45216.63;5135509;27;20445;-81
2021/12/01 06:36:14;;;;;;;3.53;3.23;;;;;;;-143.84;60.44;45228.06;5132123;27;20890;-80
2021/12/01 06:38:42;;;;;;;3.20;3.00;;;;;;;-143.84;59.90;45235.69;5135283;27;20447;-81
2021/12/01 06:41:10;;;;;;;3.40;2.90;;;;;;;-143.84;60.00;45214.72;5131447;27;20441;-79
2021/12/01 06:43:37;;;;;;;5.23;3.90;;;;;;;-143.84;58.84;45241.41;5134649;27;20976;-79
2021/12/01 06:46:05;;;;;;;3.30;3.00;;;;;;;-143.84;58.08;45201.41;5133804;27;20793;-79
2021/12/01 06:48:32;;;;;;;5.80;4.40;;;;;;;-143.84;58.65;45222.34;5134157;27;20438;-79
2021/12/01 06:50:59;;;;;;;4.73;4.17;;;;;;;-143.84;58.08;45184.25;5134028;27;20798;-79
2021/12/01 06:53:27;;;;;;;4.20;3.80;;;;;;;-143.84;58.36;45224.25;5133529;27;20448;-80
2021/12/01 06:55:56;;;;;;;5.00;4.50;;;;;;;-143.84;57.18;45180.47;5133306;27;20458;-79
2021/12/01 06:58:23;;;;;;;5.73;4.60;;;;;;;-143.84;57.21;45178.56;5134281;27;20446;-76
2021/12/01 07:00:51;;;;;;;5.80;4.70;;;;;;;-143.84;55.72;45195.69;5134580;27;20463;-81
2021/12/01 07:03:18;;;;;;;7.10;3.80;;;;;;;-143.84;55.08;45170.94;5116083;27;21267;-80
2021/12/01 07:05:45;;;;;;;3.67;3.33;;;;;;;-143.84;53.99;45186.16;5132702;27;20454;-79
2021/12/01 07:08:12;;;;;;;3.90;3.60;;;;;;;-143.84;53.12;45197.59;5132927;27;20445;-78
2021/12/01 07:10:40;;;;;;;4.60;3.13;;;;;;;-143.84;52.23;45189.97;5132485;27;21382;-80
2021/12/01 07:13:09;;;;;;;4.37;3.80;;;;;;;-143.84;52.87;45191.88;5135653;27;20438;-81
2021/12/01 07:15:36;;;;;;;3.63;3.33;;;;;;;-143.84;52.47;45203.31;5134907;27;21890;-81
2021/12/01 07:18:03;;;;;;;6.90;3.07;;;;;;;-143.84;50.11;45209.03;5135039;27;20434;-80
2021/12/01 07:20:31;;;;;;;6.47;3.37;;;;;;;-143.84;50.55;45197.59;5133745;27;20438;-81
2021/12/01 07:22:58;;;;;;;4.00;3.50;;;;;;;-143.84;49.76;45193.78;5133957;27;20467;-79
2021/12/01 07:25:25;;;;;;;3.90;3.10;;;;;;;-143.84;50.06;45178.56;5131871;27;20971;-78
2021/12/01 07:27:53;;;;;;;5.63;3.53;;;;;;;-143.84;49.82;45188.06;5131221;27;20561;-78
2021/12/01 07:30:22;;;;;;;6.47;4.60;;;;;;;-143.84;49.59;45201.41;5131143;27;20479;-76
2021/12/01 07:32:50;;;;;;;6.80;5.90;;;;;;;-143.84;49.85;45172.84;5130957;27;20441;-77
2021/12/01 07:35:18;;;;;;;7.60;4.97;;;;;;;-143.84;49.25;45176.66;5129045;27;20478;-76
2021/12/01 07:37:46;;;;;;;8.60;5.87;;;;;;;-143.84;48.99;45170.94;5125408;27;20935;-76
2021/12/01 07:40:13;;;;;;;9.93;5.70;;;;;;;-143.84;48.89;45203.31;5127341;27;21011;-77
2021/12/01 07:42:41;;;;;;;7.10;5.60;;;;;;;-143.84;48.06;45178.56;5127021;27;21207;-75
2021/12/01 07:45:09;;;;;;;14.90;6.73;;;;;;;-143.84;47.89;45170.94;5131827;27;21838;-83
2021/12/01 07:47:39;;;;;;;10.53;7.23;;;;;;;-143.84;48.34;45191.88;5130479;27;20446;-78
2021/12/01 07:50:07;;;;;;;9.17;6.53;;;;;;;-143.84;46.75;45157.59;5129000;27;20600;-78
2021/12/01 07:52:35;;;;;;;16.07;8.07;;;;;;;-143.84;46.26;45184.25;5129399;27;20449;-81
2021/12/01 07:55:03;;;;;;;12.47;7.80;;;;;;;-143.84;46.45;45163.31;5130937;27;20457;-81
2021/12/01 07:57:31;;;;;;;8.80;7.60;;;;;;;-143.84;45.88;45165.22;5130538;27;20443;-80
2021/12/01 07:59:58;;;;;;;14.83;8.00;;;;;;;-143.84;45.73;45180.47;5111756;27;20439;-79
2021/12/01 08:02:26;;;;;;;14.30;7.93;;;;;;;-143.84;45.53;45197.59;5130239;27;20902;-80
2021/12/01 08:04:57;;;;;;;16.70;7.77;;;;;;;-143.84;45.54;45189.97;5131301;27;20495;-81
2021/12/01 08:07:27;;;;;;;19.33;9.70;;;;;;;-143.84;45.59;45151.91;5114072;27;20451;-80
2021/12/01 08:09:55;;;;;;;13.80;7.80;;;;;;;-143.84;45.25;45172.84;5130970;27;20479;-81
2021/12/01 08:12:22;;;;;;;16.13;8.07;;;;;;;-143.84;44.98;45189.97;5128551;27;20494;-85
2021/12/01 08:14:49;;;;;;;5.47;4.97;;;;;;;-143.84;45.81;45167.13;5127940;27;20436;-77
2021/12/01 08:17:17;;;;;;;6.03;4.53;;;;;;;-143.84;46.04;45142.38;5129691;27;20499;-80
2021/12/01 08:19:44;;;;;;;5.63;4.27;;;;;;;-143.84;44.75;45174.75;5129978;27;20808;-80
2021/12/01 08:22:13;;;;;;;6.60;4.67;;;;;;;-143.84;45.65;45129.03;5129967;27;20441;-80
2021/12/01 08:24:40;;;;;;;7.50;3.80;;;;;;;-143.84;45.92;45157.59;5127246;27;20449;-79
2021/12/01 08:27:07;;;;;;;5.53;3.23;;;;;;;-143.84;44.87;45125.22;5128652;27;20444;-80
2021/12/01 08:29:35;;;;;;;4.33;3.47;;;;;;;-143.84;45.56;45146.19;5129852;27;20476;-80
2021/12/01 08:32:02;;;;;;;7.80;3.50;;;;;;;-143.84;45.89;45159.50;5130288;27;20482;-82
2021/12/01 08:34:29;;;;;;;3.70;3.40;;;;;;;-143.84;45.78;45148.09;5124933;27;20440;-74
2021/12/01 08:36:57;;;;;;;4.47;3.50;;;;;;;-143.84;45.73;45170.94;5124329;27;20555;-73
2021/12/01 08:39:26;;;;;;;8.30;4.77;;;;;;;-143.84;45.18;45157.59;5122891;27;20967;-73
2021/12/01 08:41:53;;;;;;;3.93;3.53;;;;;;;-143.84;45.27;45138.56;5125141;27;20462;-72
2021/12/01 08:44:21;;;;;;;3.03;2.83;;;;;;;-143.84;45.02;45134.75;5123521;27;21266;-73
2021/12/01 08:46:48;;;;;;;3.27;2.97;;;;;;;-143.84;45.35;45138.56;5124618;27;20493;-73
2021/12/01 08:49:15;;;;;;;3.20;2.90;;;;;;;-143.84;45.52;45170.94;5124063;27;20476;-72
2021/12/01 08:51:43;;;;;;;2.83;2.63;;;;;;;-143.84;45.83;45165.22;5124719;27;20446;-72
2021/12/01 08:54:13;;;;;;;3.10;2.80;;;;;;;-143.84;45.50;45144.28;5123667;27;20465;-72
2021/12/01 08:56:43;;;;;;;11.80;2.97;;;;;;;-143.84;44.59;45170.94;5125389;27;20485;-80
2021/12/01 08:59:10;;;;;;;3.80;1.60;;;;;;;-143.84;43.74;45130.94;5127498;27;20457;-79
2021/12/01 09:01:38;;;;;;;2.00;1.83;;;;;;;-143.84;44.75;45146.19;5128906;27;20534;-78
2021/12/01 09:04:05;;;;;;;9.83;2.67;;;;;;;-143.84;45.26;45150.00;5128586;27;20456;-76
2021/12/01 09:06:34;;;;;;;3.70;2.50;;;;;;;-143.84;45.97;45140.47;5125727;27;20453;-76
2021/12/01 09:09:01;;;;;;;2.90;2.17;;;;;;;-143.84;46.11;45129.03;5105887;27;20459;-76
2021/12/01 09:11:29;;;;;;;2.73;2.00;;;;;;;-143.84;44.36;45144.28;5125938;27;20485;-75
2021/12/01 09:13:57;;;;;;;2.77;2.00;;;;;;;-143.84;46.09;45134.75;5130340;27;20527;-80
2021/12/01 09:16:25;;;;;;;5.27;2.17;;;;;;;-143.84;46.03;45151.91;5128364;27;20481;-81
2021/12/01 09:18:53;;;;;;;4.30;2.07;;;;;;;-143.84;46.60;45146.19;5129287;27;20537;-80
2021/12/01 09:21:21;;;;;;;1.97;1.77;;;;;;;-143.84;46.88;45144.28;5128467;27;20453;-85
2021/12/01 09:23:49;;;;;;;2.00;1.80;;;;;;;-143.84;47.22;45155.69;5128062;27;20457;-73
2021/12/01 09:26:16;;;;;;;3.93;2.10;;;;;;;-143.84;47.44;45155.69;5124270;27;20943;-73
2021/12/01 09:28:43;;;;;;;2.33;2.13;;;;;;;-143.84;48.48;45140.47;5123015;27;20563;-74
2021/12/01 09:31:12;;;;;;;2.30;2.10;;;;;;;-143.84;48.99;45165.22;5123580;27;20828;-74
2021/12/01 09:33:39;;;;;;;2.10;2.00;;;;;;;-143.84;48.41;45231.88;5122508;27;20463;-74
2021/12/01 09:36:07;;;;;;;2.63;2.43;;;;;;;-143.84;50.50;45151.91;5122799;27;20491;-74
2021/12/01 09:38:34;;;;;;;2.53;2.17;;;;;;;-143.84;51.02;45178.56;5122103;27;21009;-77
2021/12/01 09:41:01;;;;;;;2.30;2.20;;;;;;;-143.84;50.27;45134.75;5123106;28;20467;-73
2021/12/01 09:43:31;;;;;;;2.90;2.37;;;;;;;-143.84;51.53;45174.75;5121884;28;20449;-72
2021/12/01 09:46:01;;;;;;;3.33;2.23;;;;;;;-143.84;51.61;45146.19;5124464;28;20533;-75
2021/12/01 09:48:30;;;;;;;2.20;2.10;;;;;;;-143.84;52.72;45157.59;5122712;28;20460;-73
2021/12/01 09:50:57;;;;;;;3.20;2.40;;;;;;;-143.84;52.90;45155.69;5125677;28;20456;-72
2021/12/01 09:53:25;;;;;;;5.80;2.50;;;;;;;-143.84;52.99;45138.56;5127410;28;20449;-73
2021/12/01 09:55:53;;;;;;;3.43;2.13;;;;;;;-143.84;53.25;45157.59;5127619;28;20440;-72
2021/12/01 09:58:23;;;;;;;4.07;2.00;;;;;;;-143.84;52.05;45144.28;5124183;28;20454;-73
2021/12/01 10:00:55;;;;;;;2.33;2.13;;;;;;;-143.84;51.22;45132.84;5123290;28;20453;-73
2021/12/01 10:03:24;;;;;;;2.13;2.03;;;;;;;-143.84;52.58;45161.41;5122890;28;20441;-74
2021/12/01 10:06:00;;;;;;;4.40;1.97;;;;;;;-143.84;52.48;45157.59;5124331;28;20489;-76
2021/12/01 10:08:30;;;;;;;2.77;2.37;;;;;;;-143.84;52.27;45136.66;5125174;28;20473;-76
2021/12/01 10:10:58;;;;;;;2.27;2.03;;;;;;;-143.84;51.75;45153.81;5125766;28;20534;-75
2021/12/01 10:13:29;;;;;;;4.97;2.40;;;;;;;-143.84;52.73;45153.81;5126095;28;20920;-75
2021/12/01 10:15:59;;;;;;;3.57;1.90;;;;;;;-143.84;51.84;45136.66;5126995;28;20769;-76
2021/12/01 10:18:28;;;;;;;2.30;2.20;;;;;;;-143.84;51.79;45153.81;5124759;28;20461;-76
2021/12/01 10:21:06;;;;;;;3.50;2.00;;;;;;;-143.84;51.64;45151.91;5129647;28;20474;-75
2021/12/01 10:23:35;;;;;;;2.47;2.30;;;;;;;-143.84;52.72;45136.66;5128854;28;20461;-75
2021/12/01 10:26:28;;;;;;;2.67;1.97;;;;;;;-143.84;52.98;45148.09;5129851;28;20449;-74
2021/12/01 10:28:57;;;;;;;1.97;1.87;;;;;;;-143.84;53.82;45153.81;5107115;28;20474;-76
2021/12/01 10:31:39;;;;;;;2.43;1.70;;;;;;;-143.84;53.49;45148.09;5127375;28;20456;-75
2021/12/01 10:34:25;;;;;;;2.47;2.23;;;;;;;-143.84;53.26;45142.38;5129410;28;20849;-74
2021/12/01 10:37:10;;;;;;;1.70;1.60;;;;;;;-143.84;52.65;45138.56;5130038;28;20481;-74
2021/12/01 10:39:41;;;;;;;1.50;1.40;;;;;;;-143.84;54.32;45157.59;5130244;28;20455;-74
2021/12/01 10:42:12;;;;;;;2.30;2.10;;;;;;;-143.84;54.48;45161.41;5129749;28;20457;-75
2021/12/01 10:44:54;;;;;;;4.13;2.43;;;;;;;-143.84;54.83;45129.03;5110823;27;20521;-75
2021/12/01 10:47:22;;;;;;;2.77;2.30;;;;;;;-143.84;54.46;45144.28;5132007;27;20451;-75
2021/12/01 10:49:49;;;;;;;2.07;1.87;;;;;;;-143.84;52.98;45151.91;5131070;27;21704;-76
2021/12/01 10:52:43;;;;;;;1.53;1.43;;;;;;;-143.84;52.99;45159.50;5132660;27;20461;-74
2021/12/01 10:55:13;;;;;;;1.73;1.63;;;;;;;-143.84;53.66;45144.28;5130240;27;20460;-74
2021/12/01 10:57:42;;;;;;;1.73;1.63;;;;;;;-143.84;54.74;45123.34;5132727;27;20477;-75
2021/12/01 11:00:15;;;;;;;3.83;2.60;;;;;;;-143.84;54.85;45136.66;5132598;27;20452;-73
2021/12/01 11:02:43;;;;;;;2.10;1.80;;;;;;;-143.84;52.46;45189.97;5132814;27;20453;-74
2021/12/01 11:05:10;;;;;;;3.57;1.70;;;;;;;-143.84;53.75;45167.13;5132514;27;20815;-73
2021/12/01 11:07:39;;;;;;;2.20;1.80;;;;;;;-143.84;54.23;45153.81;5132496;27;21037;-75
2021/12/01 11:10:18;;;;;;;4.57;2.23;;;;;;;-143.84;55.06;45132.84;5134382;27;20465;-75
2021/12/01 11:12:53;;;;;;;2.30;2.20;;;;;;;-143.84;55.75;45155.69;5092944;28;20440;-75
2021/12/01 11:15:24;;;;;;;5.03;2.20;;;;;;;-143.84;57.14;45148.09;5091839;28;20439;-75
2021/12/01 11:17:52;;;;;;;3.00;2.30;;;;;;;-143.84;57.21;45134.75;5091873;28;20490;-75
2021/12/01 11:20:37;;;;;;;2.33;2.20;;;;;;;-143.84;56.54;45153.81;5091555;28;20475;-73
2021/12/01 11:23:16;;;;;;;2.60;2.17;;;;;;;-143.84;57.08;45140.47;5090077;28;20439;-73
2021/12/01 11:25:50;;;;;;;2.40;2.20;;;;;;;-143.84;57.41;45157.59;5090210;28;20443;-74
2021/12/01 11:28:20;;;;;;;2.93;2.70;;;;;;;-143.84;58.19;45163.31;5089064;28;20442;-72